Maxwell Air Force Base
KMXF : now visible

Airfield :











YOU CAN JOIN US ON...

 
LOGIN :

Register | Disclaimer

   EN    FR    IT 

 









Legend :    VFR   Marginal VFR   IFR   Intensive IFR   Very Intensive IFR
Visi :
Ceiling :
>= 8 km
>= 3000ft
5 to 8 km
1000 to 3000 ft
1500m to 5 km
500 to 1000 ft
800 to 1500m
200 to 500 ft
< 800m
< 200 ft
Symbols :   Thunderstorms  Fog  Heavy snow  Heavy precipitations  Wind > 20 kt






- Airport Elevation : 171 ft


KMXF - Maxwell Air Force Base

CURRENT METAR :
  • 231356Z AUTO 05003KT 10SM BKN110 06/03 A3032 RMK AO2 SLP271 T00560026

EXPIRED METARs :
  • 231256Z AUTO 00000KT 10SM OVC110 05/03 A3030 RMK AO2 SLP264 T00460028
  • 231156Z AUTO 03003KT 10SM BKN110 04/03 A3029 RMK AO2 SLP261 T00430026 10043 20012 53000

TAF TAF KMXF
Valid from the 23 at 12:00 until the 24 at 18:00 UTC


231200Z 2312/2418 16006KT 9999 FEW110 QNH3005INS
BECMG 2412/2413 20006KT 9999 SCT016 510023 QNH3003INS
BECMG 2416/2417 VRB06KT 9000 -RA SCT009 510033 QNH3004INS
BECMG 2417/2418 VRB06KT 9000 -RA FEW002 510023 QNH3000INS TX11/2322Z TN01/2312Z



MET'MAP, your aeronautical weather chart ! - Copyright ORBIFLY December 2007 - Disclaimer

ORBIFLY MET'MAP TEAM :

Programming & Development : Alexandra Zaïnal
Concept & original design : Baudouin d'Aumeries
Assistance for programming : Marc-Olivier Méhu
Technical & hardware support : Manuel Goepfert

Contact : metmap@orbifly.com




SOURCES & CREDITS :

   NOAA       Earth
Advisory